Union, WA

10:22 AM PDT on May 30, 2015 (GMT -0700)
Potlatch | | Change Station
CLOSE
Current Station
Personal Weather Station
Location: Hoodsport, WA
Elevation: 9 ft
Nearby Weather Stations

Elev 9 ft 47.36 °N, 123.16 °W | Updated 16 seconds ago

Overcast
Overcast
54.5 °F
Feels Like 54.5 °F
N
1.0
Wind Variable Wind from SE
Gusts 3.0 mph

Today
High -- | Low -- °F
--% Chance of Precip.
Yesterday
High -- | Low -- °F
Precip. -- in
5:21 AM 8:59 PM
Waxing Gibbous, 91% visible
Pressure 29.98 in
Visibility 10.0 miles
Clouds Overcast 1100 ft
Dew Point 50 °F
Humidity 84%
Rainfall 0.00 in
Snow Depth Not available.
UV 2 out of 12
Pollen 8.30 out of 12
Air Quality Not available.
Flu Activity Sporadic
METAR KSHN 301653Z AUTO 23010KT 10SM OVC011 11/08 A2997 RMK AO2 SLP151 T01110078

More Conditions Fewer Conditions

Pressure 29.98 in
Visibility 10.0 miles
Clouds Overcast 1100 ft
Dew Point 50 °F
Humidity 84%
Rainfall 0.00 in
Snow Depth Not available.
UV 2 out of 12
Pollen 8.30 out of 12
Air Quality Not available.
Flu Activity Sporadic
METAR KSHN 301653Z AUTO 23010KT 10SM OVC011 11/08 A2997 RMK AO2 SLP151 T01110078

More Conditions Fewer Conditions

10-Day Weather Forecast

Almanac

Astronomy

May. 30, 2015 Rise Set
Actual Time
Civil Twilight
Nautical Twilight
Astronomical Twilight
Moon
Length of Visible Light
Length of Day
Tomorrow will be .
, % of the Moon is Illuminated

Today's Extremes

State Highs State Lows

Community

WunderPhotos

Upload Photos

1,825,578 photos uploaded!

WunderBlogs® & News

Nearby

Air Quality

  Air Quality AQ Index Pollutant
Not available.

Snow Depth

Station Depth Elevation

Earthquake Activity

City Distance Mag. Time & Date
Minimum magnitude displayed is 2.5.

Coastal Water Temperatures

Place Temperature

Stations

Nearby Weather Stations

Station Location Temp. Windchill Dew Point Humidity Wind Precip. Elev Updated Type